Time;durP1;ratioP1;P1;durP2;ratioP2;P2;SDS_P1;SDS_P2;PMS_P1;PMS_P2;Temp;Humidity;BMP_temperature;BMP_pressure;BME280_temperature;BME280_humidity;BME280_pressure;Samples;Min_cycle;Max_cycle;Signal;HPM_P1;HPM_P2
2022/02/04 00:28:11;;;;;;;27.65;15.60;;;9.90;67.40;;;;;;5039212;28;20116;-61
2022/02/04 00:30:43;;;;;;;30.15;14.63;;;9.90;67.80;;;;;;5032426;28;20073;-62
2022/02/04 00:33:12;;;;;;;25.65;14.95;;;9.90;68.20;;;;;;5032626;28;20517;-64
2022/02/04 00:38:19;;;;;;;26.90;14.57;;;9.80;68.20;;;;;;5032682;28;20037;-62
2022/02/04 00:40:53;;;;;;;21.65;13.98;;;9.80;68.40;;;;;;5032685;28;20033;-64
2022/02/04 00:43:20;;;;;;;25.45;15.00;;;9.80;68.00;;;;;;5032668;28;20347;-63
2022/02/04 00:46:12;;;;;;;20.20;14.50;;;9.80;68.20;;;;;;5032488;28;20110;-63
2022/02/04 01:26:31;;;;;;;24.08;14.73;;;9.40;69.70;;;;;;5035237;28;20079;-69
2022/02/04 01:28:57;;;;;;;22.40;14.43;;;9.40;69.60;;;;;;5035839;28;20053;-64
2022/02/04 01:31:24;;;;;;;26.83;15.70;;;9.40;69.30;;;;;;5035797;28;20053;-73
2022/02/04 01:33:52;;;;;;;23.85;14.68;;;9.40;69.80;;;;;;5035589;28;20052;-77
2022/02/04 01:36:18;;;;;;;24.30;14.40;;;9.40;69.80;;;;;;5035888;28;20038;-80
2022/02/04 01:38:45;;;;;;;22.90;14.77;;;9.50;70.30;;;;;;5035667;28;20041;-70
2022/02/04 01:41:12;;;;;;;25.83;14.25;;;9.50;70.00;;;;;;5035611;28;20024;-75
2022/02/04 01:43:41;;;;;;;23.98;14.77;;;9.60;70.80;;;;;;5035539;28;20030;-73
2022/02/04 01:46:12;;;;;;;19.45;13.77;;;9.70;70.40;;;;;;5035387;28;20042;-73
2022/02/04 01:48:42;;;;;;;22.10;13.20;;;9.70;70.40;;;;;;5034532;28;20103;-78
2022/02/04 01:51:15;;;;;;;23.00;13.38;;;9.80;70.40;;;;;;5035641;28;20029;-71
2022/02/04 01:53:42;;;;;;;22.58;13.85;;;9.90;70.70;;;;;;5036055;28;20116;-73
2022/02/04 01:56:12;;;;;;;21.90;13.15;;;10.00;69.50;;;;;;5035487;28;20025;-63
2022/02/04 01:58:40;;;;;;;20.08;14.02;;;10.00;69.60;;;;;;5035736;28;20035;-76
2022/02/04 02:01:11;;;;;;;26.23;14.57;;;10.00;69.60;;;;;;5037500;28;20021;-64
2022/02/04 02:03:38;;;;;;;22.88;12.40;;;10.10;70.20;;;;;;5046079;28;20025;-62
2022/02/04 02:06:10;;;;;;;20.73;11.30;;;10.10;69.90;;;;;;5039902;28;20045;-68
2022/02/04 02:08:35;;;;;;;18.77;10.98;;;10.20;70.10;;;;;;5035428;28;20033;-68
2022/02/04 02:11:01;;;;;;;17.83;11.38;;;10.30;70.90;;;;;;5034953;28;20080;-66
2022/02/04 02:51:40;;;;;;;24.95;14.18;;;9.50;72.90;;;;;;5072135;28;20470;-75
2022/02/04 02:59:26;;;;;;;18.40;13.20;;;9.60;72.70;;;;;;5034594;28;20064;-65
2022/02/04 03:01:52;;;;;;;20.25;13.45;;;9.60;73.10;;;;;;5032959;28;20026;-66
2022/02/04 03:04:19;;;;;;;19.20;13.68;;;9.60;72.90;;;;;;5034065;28;20056;-66
2022/02/04 03:06:48;;;;;;;23.10;13.52;;;9.60;73.10;;;;;;5033976;28;20048;-73
2022/02/04 03:09:16;;;;;;;24.73;13.93;;;9.50;73.40;;;;;;5035027;28;20112;-76
2022/02/04 03:11:45;;;;;;;21.15;13.48;;;9.60;73.70;;;;;;5035563;28;20029;-73
2022/02/04 03:14:12;;;;;;;23.65;14.43;;;9.60;73.60;;;;;;5035448;28;20032;-66
2022/02/04 03:16:38;;;;;;;21.25;13.30;;;9.60;73.80;;;;;;5034191;28;20498;-72
2022/02/04 03:19:06;;;;;;;20.42;14.05;;;9.60;73.70;;;;;;5034382;28;20017;-63
2022/02/04 03:21:37;;;;;;;21.80;13.05;;;9.60;73.70;;;;;;5034339;28;20297;-63
2022/02/04 03:24:08;;;;;;;24.90;13.85;;;9.60;73.90;;;;;;5034166;28;20041;-66
2022/02/04 03:29:06;;;;;;;20.05;12.82;;;9.60;74.30;;;;;;5035465;28;20108;-62
2022/02/04 03:31:38;;;;;;;25.38;13.70;;;9.60;73.90;;;;;;5034624;28;20505;-63
2022/02/04 03:34:04;;;;;;;22.00;13.30;;;9.70;74.10;;;;;;5034355;28;20141;-64
2022/02/04 03:36:31;;;;;;;18.65;13.52;;;9.70;73.90;;;;;;5033394;28;20542;-68
2022/02/04 03:38:57;;;;;;;26.17;13.40;;;9.60;74.00;;;;;;5034165;28;20038;-66
2022/02/04 03:41:23;;;;;;;20.05;12.88;;;9.60;74.10;;;;;;5032498;28;20033;-68
2022/02/04 03:43:49;;;;;;;20.13;12.90;;;9.70;74.10;;;;;;5034142;28;20075;-66
2022/02/04 03:46:14;;;;;;;19.75;11.98;;;9.70;74.40;;;;;;5033997;28;20185;-66
2022/02/04 03:48:40;;;;;;;21.27;11.18;;;9.70;74.50;;;;;;5034675;28;20429;-61
2022/02/04 03:51:06;;;;;;;18.42;11.40;;;9.70;74.20;;;;;;5034465;28;20029;-62
2022/02/04 03:53:32;;;;;;;19.08;11.43;;;9.70;74.50;;;;;;5033913;28;20036;-63
2022/02/04 03:55:59;;;;;;;17.48;11.73;;;9.70;74.50;;;;;;5033720;28;20045;-68
2022/02/04 03:58:24;;;;;;;19.10;12.35;;;9.70;74.50;;;;;;5033344;28;20029;-61
2022/02/04 04:00:50;;;;;;;17.45;10.75;;;9.70;74.90;;;;;;5033408;28;20033;-67
2022/02/04 04:03:16;;;;;;;17.85;10.52;;;9.70;74.90;;;;;;5033541;28;20029;-67
2022/02/04 04:05:46;;;;;;;16.05;10.32;;;9.70;75.10;;;;;;5033155;28;20045;-69
2022/02/04 04:08:14;;;;;;;20.55;10.65;;;9.70;75.00;;;;;;5033241;28;20179;-63
2022/02/04 04:10:42;;;;;;;17.60;10.95;;;9.70;75.10;;;;;;5032980;28;20151;-67
2022/02/04 04:13:09;;;;;;;19.38;11.93;;;9.70;75.80;;;;;;5033242;28;20037;-69
2022/02/04 04:15:35;;;;;;;15.38;10.27;;;9.80;75.00;;;;;;5032933;28;20364;-69
2022/02/04 04:18:02;;;;;;;18.70;10.30;;;9.80;75.00;;;;;;5032819;28;20033;-64
2022/02/04 04:20:29;;;;;;;14.23;10.80;;;9.80;75.00;;;;;;5032848;28;20555;-67
2022/02/04 04:22:56;;;;;;;17.02;10.10;;;9.80;75.00;;;;;;5032780;28;20413;-63
2022/02/04 04:25:22;;;;;;;17.00;10.65;;;9.80;75.00;;;;;;5031400;28;20534;-70
2022/02/04 04:27:49;;;;;;;13.85;9.68;;;9.80;75.60;;;;;;5032602;28;20022;-62
2022/02/04 04:30:21;;;;;;;16.48;10.02;;;9.80;75.60;;;;;;5032124;28;20461;-63
2022/02/04 04:32:48;;;;;;;16.40;9.27;;;9.80;76.40;;;;;;5032651;28;20058;-62
2022/02/04 04:35:19;;;;;;;18.55;10.23;;;9.80;76.70;;;;;;5032989;28;20156;-67
2022/02/04 04:37:57;;;;;;;18.90;10.50;;;9.80;76.70;;;;;;5031465;28;20026;-72
2022/02/04 05:29:06;;;;;;;19.25;10.00;;;10.40;78.10;;;;;;5032114;28;20047;-63
2022/02/04 05:31:32;;;;;;;17.85;10.00;;;10.50;77.90;;;;;;5032261;28;20025;-63
2022/02/04 05:33:57;;;;;;;16.33;10.10;;;10.50;77.80;;;;;;5032218;28;20072;-68
2022/02/04 05:36:23;;;;;;;15.93;10.05;;;10.50;77.70;;;;;;5032664;28;20049;-66
2022/02/04 05:38:51;;;;;;;16.70;9.38;;;10.50;77.80;;;;;;5032539;28;20030;-63
2022/02/04 05:41:23;;;;;;;16.73;10.60;;;10.60;78.00;;;;;;5033557;28;20079;-66
2022/02/04 05:43:59;;;;;;;14.48;10.07;;;10.60;77.50;;;;;;5036226;28;20057;-79
2022/02/04 05:46:33;;;;;;;22.20;10.38;;;10.60;78.10;;;;;;5036278;28;20045;-76
2022/02/04 05:49:02;;;;;;;21.83;11.80;;;10.60;77.90;;;;;;5034511;28;20025;-76
2022/02/04 05:54:03;;;;;;;16.33;11.10;;;10.60;77.60;;;;;;5035629;28;20060;-62
2022/02/04 06:09:59;;;;;;;13.20;7.55;;;10.80;76.80;;;;;;5035098;28;20025;-68
2022/02/04 06:23:12;;;;;;;17.83;7.68;;;10.90;75.70;;;;;;5034884;28;20493;-65
2022/02/04 06:25:39;;;;;;;17.65;7.40;;;11.00;75.50;;;;;;5034736;28;20034;-69
2022/02/04 06:28:05;;;;;;;12.15;7.28;;;11.00;75.30;;;;;;5035062;28;20039;-64
2022/02/04 06:30:31;;;;;;;16.92;7.85;;;11.00;75.40;;;;;;5034729;28;20037;-65
2022/02/04 06:32:57;;;;;;;14.05;7.80;;;11.00;75.30;;;;;;5034831;28;20507;-64
2022/02/04 06:35:24;;;;;;;17.45;8.45;;;11.00;75.30;;;;;;5034640;28;20027;-68
2022/02/04 06:37:51;;;;;;;16.33;7.80;;;11.00;75.40;;;;;;5034655;28;20104;-67
2022/02/04 06:40:17;;;;;;;15.63;8.35;;;11.00;75.20;;;;;;5034516;28;20076;-68
2022/02/04 06:42:43;;;;;;;14.40;8.18;;;11.10;75.10;;;;;;5034444;28;20033;-65
2022/02/04 06:45:10;;;;;;;19.42;8.27;;;11.00;74.80;;;;;;5034454;28;20030;-63
2022/02/04 06:47:36;;;;;;;17.73;7.93;;;11.10;75.30;;;;;;5034161;28;20060;-62
2022/02/04 06:50:02;;;;;;;15.85;8.32;;;11.20;74.90;;;;;;5033916;28;20462;-62
2022/02/04 06:52:28;;;;;;;13.85;7.97;;;11.20;75.10;;;;;;5033541;28;20026;-63
2022/02/04 06:54:54;;;;;;;13.35;7.55;;;11.20;75.20;;;;;;5034766;28;20036;-72
2022/02/04 06:57:23;;;;;;;15.52;7.40;;;11.20;75.00;;;;;;5034905;28;20474;-73
2022/02/04 06:59:51;;;;;;;11.80;6.80;;;11.30;75.20;;;;;;5035237;28;20060;-64
2022/02/04 07:02:17;;;;;;;15.35;7.22;;;11.30;75.50;;;;;;5034129;28;20068;-67
2022/02/04 07:04:44;;;;;;;19.08;7.00;;;11.20;75.30;;;;;;5034001;28;20496;-66
2022/02/04 07:07:10;;;;;;;12.60;6.88;;;11.30;75.60;;;;;;5035268;28;20044;-71
2022/02/04 07:09:53;;;;;;;11.70;6.60;;;11.30;75.90;;;;;;5034570;28;20037;-67
2022/02/04 07:19:50;;;;;;;19.13;6.50;;;11.50;76.10;;;;;;5034043;28;20057;-75
2022/02/04 07:22:27;;;;;;;18.48;7.95;;;11.60;75.80;;;;;;5033955;28;20111;-73
2022/02/04 07:24:56;;;;;;;11.52;6.25;;;11.60;76.10;;;;;;5033598;28;20017;-70
2022/02/04 07:27:24;;;;;;;12.60;6.00;;;11.70;75.80;;;;;;5034439;28;20505;-64
2022/02/04 07:29:52;;;;;;;11.93;5.95;;;11.80;75.70;;;;;;5043296;28;20029;-69
2022/02/04 07:32:29;;;;;;;12.32;6.82;;;11.70;75.20;;;;;;5035862;28;20034;-64
2022/02/04 07:42:55;;;;;;;15.00;6.90;;;11.70;75.00;;;;;;5033297;28;20044;-62
2022/02/04 07:45:22;;;;;;;12.95;7.35;;;11.80;75.10;;;;;;5033114;28;20026;-71
2022/02/04 07:47:49;;;;;;;13.98;6.90;;;11.80;75.00;;;;;;5033386;28;20071;-67
2022/02/04 07:50:20;;;;;;;15.60;7.30;;;11.80;74.90;;;;;;5032956;28;20033;-63
2022/02/04 07:52:50;;;;;;;18.52;7.40;;;11.80;74.80;;;;;;5033127;28;20131;-64
2022/02/04 07:55:16;;;;;;;19.65;7.72;;;11.80;74.60;;;;;;5032677;28;20071;-77
2022/02/04 07:57:42;;;;;;;16.33;7.03;;;11.90;74.80;;;;;;5034011;28;20067;-76
2022/02/04 08:00:10;;;;;;;13.02;7.10;;;11.90;74.90;;;;;;5033875;28;20065;-78
2022/02/04 08:02:36;;;;;;;14.05;7.05;;;12.00;74.90;;;;;;5032866;28;20072;-72
2022/02/04 08:05:08;;;;;;;15.85;8.05;;;12.00;74.80;;;;;;5031895;28;20041;-72
2022/02/04 08:07:45;;;;;;;18.05;8.23;;;12.10;74.90;;;;;;5032777;28;20083;-65
2022/02/04 08:15:41;;;;;;;15.82;6.60;;;12.30;74.80;;;;;;5032679;28;20067;-72
2022/02/04 08:18:30;;;;;;;17.70;8.00;;;12.30;74.60;;;;;;5032241;28;20037;-65
2022/02/04 08:24:42;;;;;;;17.00;7.30;;;12.40;74.40;;;;;;5032014;28;20115;-68
2022/02/04 08:27:46;;;;;;;21.20;8.02;;;12.50;74.30;;;;;;5032411;28;20029;-64
2022/02/04 08:53:47;;;;;;;10.07;3.00;;;13.90;78.10;;;;;;5035387;28;20060;-70
2022/02/04 08:56:15;;;;;;;10.80;2.90;;;14.10;77.80;;;;;;5032600;28;20135;-72
2022/02/04 08:58:50;;;;;;;9.18;2.75;;;14.20;77.10;;;;;;5033017;28;20056;-74
2022/02/04 09:01:33;;;;;;;14.05;3.20;;;14.30;77.10;;;;;;5032473;28;20121;-78
2022/02/04 09:06:37;;;;;;;14.38;3.17;;;14.40;77.00;;;;;;5032662;28;20046;-71
2022/02/04 09:09:05;;;;;;;9.77;3.08;;;14.40;77.00;;;;;;5032408;28;20033;-70
2022/02/04 09:11:44;;;;;;;11.95;2.78;;;14.50;77.10;;;;;;5032401;28;20025;-73
2022/02/04 09:19:47;;;;;;;9.45;2.95;;;14.60;76.70;;;;;;5035297;28;20057;-79
2022/02/04 09:22:26;;;;;;;11.88;2.97;;;14.60;76.70;;;;;;5036130;28;20040;-72
2022/02/04 09:24:52;;;;;;;9.80;2.60;;;14.70;76.60;;;;;;5035975;28;20100;-73
2022/02/04 09:27:17;;;;;;;10.68;3.10;;;14.80;76.10;;;;;;5036049;28;20534;-71
2022/02/04 09:29:43;;;;;;;16.80;3.10;;;14.80;76.70;;;;;;5036522;28;20063;-76
2022/02/04 09:32:10;;;;;;;10.65;3.40;;;14.70;76.30;;;;;;5036303;28;20121;-71
2022/02/04 09:34:36;;;;;;;13.73;3.47;;;14.60;76.40;;;;;;5036093;28;20056;-72
2022/02/04 09:37:01;;;;;;;11.82;3.17;;;14.60;76.70;;;;;;5036556;28;20438;-76
2022/02/04 09:39:27;;;;;;;18.00;3.20;;;14.60;76.70;;;;;;5035833;28;20075;-76
2022/02/04 09:41:54;;;;;;;15.05;3.47;;;14.50;76.70;;;;;;5036567;28;20029;-78
2022/02/04 09:44:20;;;;;;;10.68;2.95;;;14.50;76.80;;;;;;5036307;28;20022;-77
2022/02/04 09:46:46;;;;;;;11.73;3.05;;;14.50;76.90;;;;;;5036791;28;20041;-74
2022/02/04 09:49:23;;;;;;;10.10;3.40;;;14.60;76.40;;;;;;5035120;28;20029;-76
2022/02/04 10:17:24;;;;;;;9.25;3.03;;;15.50;71.90;;;;;;5036821;28;20475;-72
2022/02/04 10:19:54;;;;;;;12.27;3.58;;;15.50;71.70;;;;;;5035668;28;20055;-74
2022/02/04 10:22:24;;;;;;;14.82;3.47;;;15.60;71.60;;;;;;5035356;28;20032;-78
2022/02/04 10:24:57;;;;;;;13.40;3.75;;;15.70;71.40;;;;;;5035602;28;20022;-72
2022/02/04 10:27:25;;;;;;;8.57;3.13;;;15.70;71.20;;;;;;5034145;28;20132;-68
2022/02/04 10:29:58;;;;;;;12.93;3.13;;;15.80;70.40;;;;;;5033741;28;20092;-65
2022/02/04 10:32:44;;;;;;;13.50;4.25;;;15.90;70.40;;;;;;5035381;28;20494;-80
2022/02/04 10:35:32;;;;;;;9.45;3.45;;;16.00;70.20;;;;;;5035237;28;20044;-76
2022/02/04 10:38:24;;;;;;;12.38;3.17;;;16.00;69.00;;;;;;5035192;28;20048;-78
2022/02/04 10:41:13;;;;;;;8.25;3.00;;;16.00;68.80;;;;;;5035229;28;20421;-73
2022/02/04 10:52:57;;;;;;;12.50;3.45;;;16.00;69.90;;;;;;5045863;28;20033;-65
2022/02/04 10:55:47;;;;;;;11.73;3.28;;;16.10;69.60;;;;;;5035649;28;20034;-74
2022/02/04 11:01:07;;;;;;;11.35;3.13;;;16.20;69.30;;;;;;5034076;28;20061;-65
2022/02/04 11:03:37;;;;;;;7.20;2.70;;;16.20;69.70;;;;;;5033944;28;20160;-63
2022/02/04 11:06:28;;;;;;;12.43;3.95;;;16.20;69.70;;;;;;5033985;28;20132;-73
2022/02/04 11:36:37;;;;;;;16.80;4.97;;;16.50;68.80;;;;;;5033797;28;20423;-64
2022/02/04 11:57:03;;;;;;;22.45;5.15;;;17.30;67.20;;;;;;5011536;28;20030;-65
2022/02/04 11:59:43;;;;;;;14.27;4.20;;;17.50;66.90;;;;;;5022832;28;20033;-64
2022/02/04 12:02:24;;;;;;;13.00;3.88;;;17.70;66.80;;;;;;5034337;28;20141;-75
2022/02/04 12:05:05;;;;;;;13.40;4.60;;;17.90;65.90;;;;;;5033196;28;20057;-64
2022/02/04 12:07:33;;;;;;;12.15;4.10;;;18.00;65.70;;;;;;5032595;28;20061;-65
2022/02/04 12:10:03;;;;;;;20.27;4.90;;;18.10;65.30;;;;;;5032771;28;20029;-77
2022/02/04 12:12:58;;;;;;;15.32;4.25;;;18.20;64.70;;;;;;5032806;28;20044;-76
2022/02/04 12:15:37;;;;;;;17.75;4.50;;;18.20;64.30;;;;;;5032523;28;20033;-65
2022/02/04 12:18:08;;;;;;;15.60;4.60;;;18.20;64.20;;;;;;5032483;28;20040;-70
2022/02/04 12:20:58;;;;;;;10.77;3.67;;;18.20;64.20;;;;;;5032807;28;20028;-77
2022/02/04 12:23:30;;;;;;;15.25;4.10;;;18.10;63.50;;;;;;5032485;28;20041;-78
2022/02/04 12:26:13;;;;;;;10.60;4.20;;;18.00;63.60;;;;;;5033084;28;20030;-78
2022/02/04 12:28:51;;;;;;;14.02;4.95;;;18.00;64.20;;;;;;5033108;28;20081;-78
2022/02/04 12:31:20;;;;;;;14.60;4.80;;;17.90;64.20;;;;;;5033292;28;20026;-77
2022/02/04 12:33:54;;;;;;;13.90;4.75;;;17.80;64.40;;;;;;5032938;28;20038;-76
2022/02/04 12:36:24;;;;;;;;;;;17.80;64.60;;;;;;5033717;28;20029;-81
2022/02/04 12:38:52;;;;;;;13.30;4.30;;;17.70;64.40;;;;;;5032691;28;20047;-74
2022/02/04 12:41:28;;;;;;;14.63;4.65;;;17.70;64.80;;;;;;5032170;28;20101;-63
2022/02/04 12:43:56;;;;;;;9.63;4.07;;;17.70;64.50;;;;;;5032256;28;20025;-65
2022/02/04 12:46:25;;;;;;;16.33;4.40;;;17.70;64.60;;;;;;5032072;28;20026;-67
2022/02/04 12:48:58;;;;;;;12.05;4.03;;;17.80;64.40;;;;;;5032318;28;20109;-64
2022/02/04 13:11:01;;;;;;;12.48;3.33;;;18.00;63.30;;;;;;5038265;28;20052;-64
2022/02/04 13:13:38;;;;;;;11.43;3.97;;;17.90;63.50;;;;;;5036196;28;20105;-69
2022/02/04 13:16:06;;;;;;;14.77;4.10;;;17.80;63.60;;;;;;5035991;28;20041;-64
2022/02/04 13:18:33;;;;;;;12.10;4.10;;;17.70;63.90;;;;;;5036448;28;20045;-64
2022/02/04 13:20:59;;;;;;;13.07;4.32;;;17.60;64.20;;;;;;5035818;28;20026;-65
2022/02/04 13:23:29;;;;;;;14.50;4.22;;;17.50;64.60;;;;;;5035873;28;20490;-63
2022/02/04 13:26:05;;;;;;;12.18;4.22;;;17.50;64.60;;;;;;5035897;28;20518;-63
2022/02/04 13:28:43;;;;;;;16.33;4.65;;;17.50;64.80;;;;;;5035817;28;20025;-64
2022/02/04 13:31:13;;;;;;;14.00;3.83;;;17.40;64.70;;;;;;5035769;28;20022;-65
2022/02/04 13:33:39;;;;;;;17.23;4.40;;;17.40;64.80;;;;;;5035859;28;20032;-62
2022/02/04 13:44:52;;;;;;;12.02;3.72;;;17.30;65.20;;;;;;5035604;28;20030;-64
2022/02/04 13:51:02;;;;;;;12.70;3.55;;;17.30;64.90;;;;;;5035495;28;20053;-62
2022/02/04 13:53:13;;;;;;;17.38;4.22;;;17.30;65.00;;;;;;5036908;28;20123;-65
2022/02/04 14:03:47;;;;;;;11.93;3.30;;;17.50;64.10;;;;;;5034146;28;20034;-64
2022/02/04 14:06:19;;;;;;;11.10;3.90;;;17.60;64.20;;;;;;5034766;28;20142;-63
2022/02/04 14:08:54;;;;;;;19.90;4.75;;;17.80;63.70;;;;;;5035469;28;20048;-65
2022/02/04 14:11:34;;;;;;;9.43;4.30;;;17.90;63.90;;;;;;5034775;28;20025;-64
2022/02/04 14:14:05;;;;;;;16.85;3.70;;;18.00;64.20;;;;;;5035228;28;20443;-64
2022/02/04 14:16:34;;;;;;;16.45;4.13;;;18.20;63.50;;;;;;5035339;28;20158;-65
2022/02/04 14:19:00;;;;;;;11.35;3.60;;;18.30;63.10;;;;;;5034809;28;20463;-63
2022/02/04 14:21:33;;;;;;;12.00;4.40;;;18.40;62.10;;;;;;5033345;28;20037;-64
2022/02/04 14:24:05;;;;;;;11.85;3.80;;;18.50;61.70;;;;;;5034658;28;20112;-64
2022/02/04 14:26:37;;;;;;;12.77;3.73;;;18.50;61.50;;;;;;5034421;28;20156;-64
2022/02/04 14:29:16;;;;;;;13.40;3.80;;;18.40;61.40;;;;;;5034520;28;20033;-64
2022/02/04 14:37:16;;;;;;;14.23;3.80;;;18.20;61.90;;;;;;5035100;28;20040;-64
2022/02/04 15:01:30;;;;;;;12.60;4.93;;;17.50;64.60;;;;;;5033674;28;20048;-64
2022/02/04 15:04:00;;;;;;;13.95;4.95;;;17.40;64.40;;;;;;5033202;28;20497;-64
2022/02/04 15:06:33;;;;;;;13.52;5.30;;;17.30;64.80;;;;;;5033476;28;20080;-63
2022/02/04 15:09:00;;;;;;;10.90;4.80;;;17.10;64.60;;;;;;5032293;28;20029;-64
2022/02/04 15:11:31;;;;;;;15.07;5.20;;;17.00;65.20;;;;;;5033853;28;20028;-65
2022/02/04 15:13:58;;;;;;;16.52;5.40;;;16.90;65.70;;;;;;5033258;28;20108;-64
2022/02/04 15:16:25;;;;;;;15.13;5.60;;;16.80;66.00;;;;;;5033465;28;20018;-63
2022/02/04 15:18:51;;;;;;;15.80;5.93;;;16.80;66.60;;;;;;5033471;28;20029;-63
2022/02/04 15:21:18;;;;;;;14.40;4.85;;;16.70;66.60;;;;;;5032159;28;20540;-63
2022/02/04 15:23:50;;;;;;;10.93;5.10;;;16.60;66.70;;;;;;5033347;28;20097;-65
2022/02/04 15:26:18;;;;;;;13.32;5.35;;;16.60;67.00;;;;;;5033762;28;20457;-63
2022/02/04 15:28:57;;;;;;;14.20;5.78;;;16.50;67.40;;;;;;5033505;28;20394;-64
2022/02/04 15:33:56;;;;;;;16.08;5.32;;;16.40;68.10;;;;;;5033233;28;20418;-69
2022/02/04 15:36:32;;;;;;;15.93;5.18;;;16.40;68.40;;;;;;5033478;28;20030;-64
2022/02/04 15:38:59;;;;;;;11.15;4.53;;;16.30;68.80;;;;;;5033285;28;20029;-64
2022/02/04 15:41:27;;;;;;;15.00;5.40;;;16.30;68.90;;;;;;5032754;28;20474;-63
2022/02/04 15:43:57;;;;;;;14.93;5.13;;;16.30;69.00;;;;;;5032791;28;20029;-65
2022/02/04 15:57:19;;;;;;;18.80;5.35;;;16.10;70.40;;;;;;5032937;28;20419;-64
2022/02/04 16:02:44;;;;;;;17.52;5.45;;;16.00;72.00;;;;;;5033409;28;20382;-72
2022/02/04 16:05:12;;;;;;;16.13;4.88;;;16.00;73.10;;;;;;5032610;28;20084;-77
2022/02/04 16:07:40;;;;;;;27.75;7.18;;;15.90;72.40;;;;;;5032677;28;20038;-70
2022/02/04 16:10:29;;;;;;;20.20;4.95;;;15.90;72.10;;;;;;5032683;28;20458;-67
2022/02/04 16:13:08;;;;;;;12.73;4.75;;;15.90;72.30;;;;;;5033063;28;20029;-70
2022/02/04 16:15:55;;;;;;;14.55;5.35;;;15.80;72.60;;;;;;5031538;28;20147;-68
2022/02/04 16:18:26;;;;;;;18.45;5.78;;;15.80;73.40;;;;;;5032610;28;20029;-74
2022/02/04 16:21:15;;;;;;;18.77;5.68;;;15.80;73.10;;;;;;5032461;28;20096;-69
2022/02/04 16:24:01;;;;;;;12.85;5.30;;;15.80;73.70;;;;;;5032277;28;20493;-65
2022/02/04 16:28:55;;;;;;;12.02;5.00;;;15.70;74.00;;;;;;5032515;28;20026;-69
2022/02/04 16:31:23;;;;;;;21.77;6.30;;;15.60;73.80;;;;;;5031983;28;20037;-65
2022/02/04 16:33:49;;;;;;;18.27;5.35;;;15.60;74.50;;;;;;5032052;28;20115;-74
2022/02/04 16:36:21;;;;;;;17.40;6.00;;;15.60;74.10;;;;;;5032067;28;20033;-65
2022/02/04 16:38:55;;;;;;;16.55;5.70;;;15.60;74.20;;;;;;5032272;28;20459;-67
2022/02/04 16:41:30;;;;;;;14.98;5.85;;;15.50;74.40;;;;;;5031915;28;20034;-65
2022/02/04 16:43:57;;;;;;;19.83;6.28;;;15.50;74.30;;;;;;5032021;28;20057;-65
2022/02/04 16:46:26;;;;;;;21.60;6.15;;;15.50;74.70;;;;;;5031938;28;20115;-65
2022/02/04 16:48:52;;;;;;;16.98;6.25;;;15.40;74.50;;;;;;5031830;28;20025;-64
2022/02/04 16:51:20;;;;;;;16.25;5.57;;;15.40;74.90;;;;;;5031647;28;20079;-71
2022/02/04 16:53:46;;;;;;;18.90;7.68;;;15.40;75.40;;;;;;5030833;28;20029;-65
2022/02/04 16:56:12;;;;;;;21.02;9.73;;;15.40;75.20;;;;;;5031905;28;20052;-64
2022/02/04 16:58:38;;;;;;;20.17;8.57;;;15.30;75.60;;;;;;5031830;28;20135;-72
2022/02/04 17:01:06;;;;;;;19.85;7.10;;;15.30;75.70;;;;;;5032092;28;20033;-64
2022/02/04 17:03:32;;;;;;;19.38;6.70;;;15.20;75.90;;;;;;5030737;28;20030;-64
2022/02/04 17:06:02;;;;;;;23.02;7.45;;;15.20;76.10;;;;;;5031709;28;20144;-64
2022/02/04 17:08:47;;;;;;;15.02;6.13;;;15.20;76.40;;;;;;5031635;28;20545;-65
2022/02/04 17:11:16;;;;;;;19.73;6.07;;;15.10;76.70;;;;;;5030549;28;20099;-68
2022/02/04 17:13:43;;;;;;;20.90;6.25;;;15.00;77.10;;;;;;5031433;28;20018;-64
2022/02/04 17:16:09;;;;;;;22.45;7.15;;;15.00;77.50;;;;;;5030389;28;20033;-66
2022/02/04 17:18:36;;;;;;;19.20;6.45;;;14.90;77.40;;;;;;5031994;28;20435;-64
2022/02/04 17:21:02;;;;;;;17.85;6.53;;;14.90;77.70;;;;;;5031931;28;20029;-65
2022/02/04 17:23:42;;;;;;;18.67;5.85;;;14.80;77.90;;;;;;5031911;28;20437;-65
2022/02/04 17:26:08;;;;;;;21.50;7.20;;;14.70;78.30;;;;;;5031477;28;20532;-64
2022/02/04 17:28:34;;;;;;;18.73;7.18;;;14.60;78.70;;;;;;5031628;28;20041;-64
2022/02/04 17:31:02;;;;;;;17.35;6.15;;;14.60;79.00;;;;;;5031662;28;20452;-66
2022/02/04 17:33:28;;;;;;;28.20;7.75;;;14.60;79.50;;;;;;5031565;28;20029;-64
2022/02/04 17:35:56;;;;;;;16.50;7.28;;;14.60;79.50;;;;;;5031885;28;20025;-65
2022/02/04 17:38:25;;;;;;;16.77;7.38;;;14.60;79.30;;;;;;5035598;28;20037;-65
2022/02/04 17:40:53;;;;;;;21.08;7.90;;;14.50;79.90;;;;;;5034967;28;20025;-64
2022/02/04 17:43:20;;;;;;;26.33;9.73;;;14.50;79.60;;;;;;5034922;28;20071;-65
2022/02/04 17:45:46;;;;;;;25.15;8.38;;;14.50;79.70;;;;;;5034849;28;20100;-65
2022/02/04 17:48:25;;;;;;;21.67;6.97;;;14.50;79.80;;;;;;5035566;28;20113;-69
2022/02/04 17:51:10;;;;;;;18.80;8.38;;;14.60;80.50;;;;;;5034907;28;20032;-63
2022/02/04 17:53:54;;;;;;;21.05;8.93;;;14.80;79.40;;;;;;5035091;28;20459;-63
2022/02/04 17:56:35;;;;;;;20.75;9.32;;;14.70;79.30;;;;;;5034926;28;20372;-62
2022/02/04 18:02:44;;;;;;;21.15;9.45;;;14.50;80.40;;;;;;5035248;28;20128;-64
2022/02/04 18:05:36;;;;;;;24.58;9.85;;;14.40;80.40;;;;;;5034776;28;20095;-66
2022/02/04 18:08:11;;;;;;;22.13;9.45;;;14.40;81.10;;;;;;5036569;28;20046;-68
2022/02/04 18:10:46;;;;;;;27.53;9.67;;;14.30;81.00;;;;;;5034093;28;20041;-63
2022/02/04 18:13:29;;;;;;;22.33;9.52;;;14.30;81.20;;;;;;5034941;28;20539;-62
2022/02/04 18:15:55;;;;;;;27.23;10.70;;;14.20;81.60;;;;;;5034909;28;20029;-62
2022/02/04 18:18:24;;;;;;;20.67;9.55;;;14.20;81.70;;;;;;5034830;28;21151;-65
2022/02/04 18:20:52;;;;;;;21.85;9.43;;;14.20;82.90;;;;;;5034775;28;20033;-64
2022/02/04 18:23:20;;;;;;;25.38;10.65;;;14.10;81.90;;;;;;5033693;28;20029;-62
2022/02/04 18:25:48;;;;;;;22.13;10.25;;;14.10;82.10;;;;;;5034813;28;20030;-63
2022/02/04 18:28:15;;;;;;;22.63;10.82;;;14.10;82.00;;;;;;5035393;28;20434;-64
2022/02/04 18:30:41;;;;;;;23.20;11.45;;;14.10;82.20;;;;;;5035102;28;20021;-63
2022/02/04 18:33:07;;;;;;;20.88;11.77;;;14.00;80.60;;;;;;5035106;28;20044;-63
2022/02/04 18:35:33;;;;;;;21.75;11.57;;;14.00;80.80;;;;;;5035461;28;20387;-63
2022/02/04 18:49:01;;;;;;;24.23;13.05;;;13.70;80.10;;;;;;5033689;28;20556;-63
2022/02/04 18:51:46;;;;;;;30.40;13.75;;;13.70;79.70;;;;;;5034153;28;20090;-65
2022/02/04 18:59:30;;;;;;;35.30;13.15;;;13.60;79.40;;;;;;5034034;28;20432;-65
2022/02/04 19:01:56;;;;;;;22.63;13.63;;;13.50;79.80;;;;;;5033982;28;20036;-63
2022/02/04 19:04:36;;;;;;;27.25;13.88;;;13.50;79.70;;;;;;5033712;28;20487;-63
2022/02/04 19:07:08;;;;;;;30.10;14.10;;;13.50;80.20;;;;;;5033183;28;20042;-63
2022/02/04 19:09:53;;;;;;;28.02;13.02;;;13.50;79.80;;;;;;5033557;28;20033;-62
2022/02/04 19:12:30;;;;;;;21.52;13.70;;;13.40;79.50;;;;;;5033287;28;20390;-65
2022/02/04 19:15:18;;;;;;;23.65;13.45;;;13.40;79.70;;;;;;5033561;28;20022;-69
2022/02/04 19:17:47;;;;;;;25.00;14.00;;;13.30;79.80;;;;;;5032175;28;20479;-62
2022/02/04 19:20:25;;;;;;;26.80;14.07;;;13.30;79.80;;;;;;5033022;28;20033;-66
2022/02/04 19:22:58;;;;;;;27.70;13.73;;;13.30;80.10;;;;;;5033621;28;20552;-66
2022/02/04 19:25:28;;;;;;;26.63;15.15;;;13.20;79.90;;;;;;5033673;28;20409;-66
2022/02/04 19:27:53;;;;;;;24.20;13.35;;;13.20;79.90;;;;;;5033376;28;20476;-66
2022/02/04 19:30:20;;;;;;;27.77;14.35;;;13.10;79.80;;;;;;5033267;28;20110;-66
2022/02/04 19:32:46;;;;;;;25.08;13.93;;;13.10;79.70;;;;;;5033050;28;20022;-67
2022/02/04 19:35:12;;;;;;;26.63;15.15;;;13.10;79.90;;;;;;5032728;28;20107;-69
2022/02/04 19:37:37;;;;;;;26.92;15.00;;;13.10;80.10;;;;;;5031521;28;20052;-68
2022/02/04 19:40:04;;;;;;;26.52;15.18;;;13.10;80.00;;;;;;5032860;28;20025;-66
2022/02/04 19:42:34;;;;;;;24.42;14.75;;;13.00;80.00;;;;;;5032738;28;20033;-66
2022/02/04 19:45:08;;;;;;;27.95;14.57;;;13.00;80.10;;;;;;5033007;28;20112;-65
2022/02/04 19:47:55;;;;;;;27.33;15.35;;;12.90;80.50;;;;;;5033128;28;20033;-68
2022/02/04 19:50:46;;;;;;;26.08;14.48;;;12.90;80.00;;;;;;5032716;28;20083;-66
2022/02/04 20:07:07;;;;;;;24.75;14.20;;;12.80;81.20;;;;;;5032662;28;20112;-67
2022/02/04 20:25:56;;;;;;;32.65;15.35;;;12.60;81.50;;;;;;5032555;28;20033;-69
2022/02/04 20:28:28;;;;;;;24.90;15.20;;;12.50;80.90;;;;;;5032713;28;20386;-63
2022/02/04 20:31:04;;;;;;;29.13;15.48;;;12.50;81.60;;;;;;5032280;28;20112;-65
2022/02/04 20:33:33;;;;;;;30.38;16.50;;;12.50;80.90;;;;;;5032248;28;20398;-66
2022/02/04 20:35:59;;;;;;;24.40;14.65;;;12.40;81.00;;;;;;5033132;28;20030;-65
2022/02/04 20:38:33;;;;;;;31.75;15.77;;;12.40;81.30;;;;;;5033310;28;20025;-64